Time;durP1;ratioP1;P1;durP2;ratioP2;P2;SDS_P1;SDS_P2;PMS_P1;PMS_P2;Temp;Humidity;BMP_temperature;BMP_pressure;BME280_temperature;BME280_humidity;BME280_pressure;Samples;Min_cycle;Max_cycle;Signal;HPM_P1;HPM_P2
2023/01/30 00:00:59;;;;;;;52.40;30.90;;;6.10;99.90;;;;;;5051446;28;20047;-49
2023/01/30 00:03:25;;;;;;;47.40;29.30;;;5.80;99.90;;;;;;5050561;28;20044;-51
2023/01/30 00:05:51;;;;;;;46.70;27.67;;;6.10;99.90;;;;;;5052044;28;20448;-49
2023/01/30 00:08:17;;;;;;;49.78;27.60;;;6.10;99.90;;;;;;5052114;28;20069;-49
2023/01/30 00:10:44;;;;;;;45.80;28.77;;;5.90;99.90;;;;;;5050485;28;20465;-48
2023/01/30 00:13:10;;;;;;;46.20;27.63;;;5.90;99.90;;;;;;5051911;28;20041;-49
2023/01/30 00:15:36;;;;;;;49.60;27.75;;;6.10;99.90;;;;;;5050424;28;20044;-52
2023/01/30 00:18:02;;;;;;;45.13;26.88;;;5.80;99.90;;;;;;5050240;28;20041;-50
2023/01/30 00:20:28;;;;;;;45.75;27.35;;;6.20;99.90;;;;;;5051717;28;20029;-50
2023/01/30 00:22:53;;;;;;;48.67;27.42;;;5.90;99.90;;;;;;5051565;28;20051;-48
2023/01/30 00:25:19;;;;;;;42.88;26.30;;;6.00;99.90;;;;;;5051529;28;20044;-51
2023/01/30 00:27:45;;;;;;;49.53;27.77;;;6.10;99.90;;;;;;5051427;28;20033;-52
2023/01/30 00:30:11;;;;;;;40.28;25.15;;;6.00;99.90;;;;;;5051114;28;20491;-52
2023/01/30 00:32:37;;;;;;;43.88;26.05;;;6.10;99.90;;;;;;5049644;28;20126;-51
2023/01/30 00:35:03;;;;;;;40.55;24.55;;;6.20;99.90;;;;;;5051884;28;20461;-54
2023/01/30 00:37:28;;;;;;;40.20;24.88;;;6.00;99.90;;;;;;5050351;28;20040;-51
2023/01/30 00:39:54;;;;;;;37.22;23.52;;;6.20;99.90;;;;;;5051234;28;20397;-49
2023/01/30 00:47:58;;;;;;;37.28;21.67;;;6.10;99.90;;;;;;5034595;28;20187;-48
2023/01/30 00:50:24;;;;;;;36.80;20.38;;;6.40;99.90;;;;;;5049751;28;20092;-50
2023/01/30 00:52:50;;;;;;;32.92;17.80;;;6.30;99.90;;;;;;5051019;28;20061;-50
2023/01/30 00:55:15;;;;;;;37.45;19.27;;;6.30;99.90;;;;;;5051305;28;20037;-51
2023/01/30 00:57:43;;;;;;;32.28;18.33;;;6.40;99.90;;;;;;5049459;28;20102;-49
2023/01/30 01:00:10;;;;;;;31.65;17.70;;;6.40;99.90;;;;;;5051194;28;20102;-52
2023/01/30 01:02:36;;;;;;;31.67;17.65;;;6.40;99.90;;;;;;5051107;28;20036;-49
2023/01/30 01:05:01;;;;;;;27.65;16.80;;;6.70;99.90;;;;;;5050797;28;20392;-53
2023/01/30 01:07:27;;;;;;;26.92;16.50;;;6.60;99.90;;;;;;5050911;28;20041;-50
2023/01/30 01:09:53;;;;;;;31.83;16.80;;;6.70;99.90;;;;;;5048964;28;20033;-51
2023/01/30 01:12:19;;;;;;;31.10;17.55;;;6.60;99.90;;;;;;5049198;28;20036;-50
2023/01/30 01:14:44;;;;;;;31.02;17.08;;;6.50;99.90;;;;;;5050976;28;20468;-50
2023/01/30 01:17:10;;;;;;;30.50;16.38;;;6.40;99.90;;;;;;5050482;28;20037;-49
2023/01/30 01:19:36;;;;;;;31.70;17.95;;;6.70;99.90;;;;;;5050663;28;20044;-51
2023/01/30 01:22:01;;;;;;;32.95;16.98;;;6.70;99.90;;;;;;5050351;28;20032;-52
2023/01/30 01:24:27;;;;;;;33.45;15.77;;;6.30;99.90;;;;;;5050765;28;20039;-54
2023/01/30 01:26:53;;;;;;;34.00;15.52;;;6.60;99.90;;;;;;5050727;28;20037;-52
2023/01/30 01:29:19;;;;;;;30.30;15.45;;;6.70;99.90;;;;;;5050592;28;20032;-53
2023/01/30 01:31:44;;;;;;;30.20;13.50;;;6.40;99.90;;;;;;5050504;28;20521;-51
2023/01/30 01:34:11;;;;;;;27.48;14.05;;;6.40;99.90;;;;;;5050247;28;20435;-50
2023/01/30 01:36:37;;;;;;;29.88;12.85;;;6.30;99.90;;;;;;5050599;28;20040;-51
2023/01/30 01:39:03;;;;;;;27.52;11.80;;;6.30;99.90;;;;;;5048764;28;20462;-47
2023/01/30 01:41:29;;;;;;;19.95;10.63;;;6.10;99.90;;;;;;5050428;28;20035;-50
2023/01/30 01:44:04;;;;;;;19.60;9.45;;;6.60;99.90;;;;;;5050567;28;20041;-53
2023/01/30 01:47:00;;;;;;;26.42;10.40;;;6.30;99.90;;;;;;5049710;28;20224;-52
2023/01/30 01:49:29;;;;;;;23.02;9.98;;;6.50;99.90;;;;;;5047817;28;20051;-50
2023/01/30 01:52:02;;;;;;;24.90;9.70;;;6.40;99.90;;;;;;5050340;28;20076;-48
2023/01/30 01:54:37;;;;;;;23.00;9.20;;;6.40;99.90;;;;;;5049984;28;20029;-52
2023/01/30 01:57:10;;;;;;;18.52;8.85;;;6.30;99.90;;;;;;5050257;28;20388;-50
2023/01/30 01:59:51;;;;;;;19.13;7.70;;;6.70;99.90;;;;;;5050201;28;20124;-50
2023/01/30 02:02:18;;;;;;;20.30;8.60;;;6.70;99.90;;;;;;5049630;28;20276;-47
2023/01/30 02:05:05;;;;;;;22.98;8.32;;;6.70;99.90;;;;;;5050196;28;20080;-51
2023/01/30 02:07:38;;;;;;;18.83;8.00;;;6.50;99.90;;;;;;5050045;28;20033;-51
2023/01/30 02:10:07;;;;;;;21.60;7.13;;;6.50;99.90;;;;;;5049593;28;20028;-50
2023/01/30 02:12:32;;;;;;;21.27;8.00;;;6.80;99.90;;;;;;5049891;28;20044;-49
2023/01/30 02:15:00;;;;;;;19.70;7.03;;;6.80;99.90;;;;;;5049770;28;20111;-47
2023/01/30 02:17:25;;;;;;;19.52;7.22;;;6.60;99.90;;;;;;5049187;28;20045;-50
2023/01/30 02:20:03;;;;;;;20.77;6.82;;;6.60;99.90;;;;;;5049806;28;20037;-49
2023/01/30 02:22:47;;;;;;;16.25;6.00;;;6.50;99.90;;;;;;5049728;28;20048;-49
2023/01/30 02:25:34;;;;;;;20.98;7.00;;;6.20;99.90;;;;;;5049430;28;20080;-49
2023/01/30 02:28:18;;;;;;;26.30;7.32;;;6.70;99.90;;;;;;5050074;28;20094;-51
2023/01/30 02:31:08;;;;;;;15.98;6.60;;;6.10;99.90;;;;;;5049192;28;20033;-49
2023/01/30 02:33:40;;;;;;;19.33;8.05;;;6.20;99.90;;;;;;5049556;28;20057;-52
2023/01/30 02:36:11;;;;;;;19.67;7.10;;;6.80;99.90;;;;;;5031661;28;20033;-50
2023/01/30 02:39:03;;;;;;;22.00;7.45;;;6.30;99.90;;;;;;5049661;28;20041;-50
2023/01/30 02:41:35;;;;;;;22.83;7.20;;;6.00;99.90;;;;;;5028967;28;20067;-51
2023/01/30 02:44:05;;;;;;;22.88;8.18;;;6.70;99.90;;;;;;5053812;28;20037;-52
2023/01/30 02:46:43;;;;;;;21.38;7.72;;;6.50;99.90;;;;;;5053392;28;20048;-50
2023/01/30 02:49:35;;;;;;;26.95;7.93;;;6.00;99.90;;;;;;5053600;28;20519;-51
2023/01/30 02:52:02;;;;;;;18.00;7.32;;;6.10;99.90;;;;;;5053561;28;20037;-53
2023/01/30 02:54:28;;;;;;;19.35;6.78;;;6.00;99.90;;;;;;5052006;28;20045;-48
2023/01/30 02:56:58;;;;;;;22.98;7.50;;;6.00;99.90;;;;;;5053575;28;20021;-50
2023/01/30 02:59:36;;;;;;;22.00;7.38;;;6.00;99.90;;;;;;5053399;28;20025;-48
2023/01/30 03:02:19;;;;;;;22.63;7.38;;;6.80;99.90;;;;;;5051961;28;20119;-51
2023/01/30 03:05:10;;;;;;;21.35;6.68;;;6.30;99.90;;;;;;5053382;28;20089;-48
2023/01/30 03:07:58;;;;;;;20.38;6.55;;;6.40;99.90;;;;;;5052999;28;20037;-51
2023/01/30 03:10:32;;;;;;;25.00;5.82;;;6.20;99.90;;;;;;5051896;28;20047;-50
2023/01/30 03:13:13;;;;;;;20.48;6.45;;;6.80;99.90;;;;;;5053233;28;20041;-49
2023/01/30 03:15:48;;;;;;;25.77;6.45;;;7.00;99.90;;;;;;5051777;28;20091;-50
2023/01/30 03:18:16;;;;;;;19.33;6.20;;;6.20;99.90;;;;;;5052823;28;20787;-48
2023/01/30 03:20:42;;;;;;;16.15;6.00;;;7.00;99.90;;;;;;5052966;28;20041;-52
2023/01/30 03:23:08;;;;;;;22.02;6.20;;;6.50;99.90;;;;;;5068333;28;20092;-48
2023/01/30 03:25:38;;;;;;;24.75;6.15;;;7.00;99.90;;;;;;5052729;28;20041;-50
2023/01/30 03:28:05;;;;;;;22.60;7.10;;;6.20;99.90;;;;;;5053122;28;20110;-51
2023/01/30 03:30:30;;;;;;;27.35;6.05;;;6.20;99.90;;;;;;5052725;28;20447;-52
2023/01/30 03:32:56;;;;;;;20.60;6.65;;;6.20;99.90;;;;;;5052608;28;20144;-50
2023/01/30 03:35:22;;;;;;;20.45;6.30;;;6.80;99.90;;;;;;5052644;28;20124;-53
2023/01/30 03:37:48;;;;;;;18.73;6.00;;;6.70;99.90;;;;;;5052403;28;20120;-48
2023/01/30 03:40:15;;;;;;;21.92;6.97;;;6.20;99.90;;;;;;5053053;28;20075;-51
2023/01/30 03:42:41;;;;;;;19.15;5.90;;;6.40;99.90;;;;;;5052195;28;20084;-50
2023/01/30 03:45:08;;;;;;;24.20;6.40;;;6.80;99.90;;;;;;5051216;28;20077;-47
2023/01/30 03:47:33;;;;;;;25.83;7.13;;;6.40;99.90;;;;;;5051789;28;20116;-49
2023/01/30 03:49:59;;;;;;;27.15;6.90;;;6.60;99.90;;;;;;5052502;28;20124;-49
2023/01/30 03:52:25;;;;;;;21.33;6.82;;;6.50;99.90;;;;;;5052392;28;20044;-49
2023/01/30 03:54:51;;;;;;;25.05;7.03;;;6.90;99.90;;;;;;5052355;28;20032;-47
2023/01/30 03:57:16;;;;;;;25.45;6.47;;;6.90;99.90;;;;;;5052527;28;20077;-50
2023/01/30 03:59:42;;;;;;;21.40;6.22;;;6.60;99.90;;;;;;5052247;28;20423;-51
2023/01/30 04:02:08;;;;;;;29.55;6.10;;;6.70;99.90;;;;;;5052677;28;20037;-50
2023/01/30 04:04:34;;;;;;;20.40;5.85;;;6.50;99.90;;;;;;5052831;28;20040;-48
2023/01/30 04:07:00;;;;;;;20.67;5.50;;;6.70;99.90;;;;;;5052198;28;20370;-51
2023/01/30 04:09:26;;;;;;;27.85;6.63;;;6.60;99.90;;;;;;5050562;28;20692;-49
2023/01/30 04:11:51;;;;;;;25.55;6.40;;;6.70;99.90;;;;;;5050722;28;20491;-51
2023/01/30 04:14:17;;;;;;;24.00;6.05;;;6.80;99.90;;;;;;5052080;28;20037;-49
2023/01/30 04:16:44;;;;;;;23.33;5.78;;;6.90;99.90;;;;;;5051844;28;20492;-50
2023/01/30 04:19:09;;;;;;;22.10;5.00;;;6.40;99.90;;;;;;5051954;28;20480;-49
2023/01/30 04:21:35;;;;;;;24.73;5.25;;;6.30;99.90;;;;;;5052158;28;20040;-53
2023/01/30 04:24:01;;;;;;;28.60;5.20;;;6.50;99.90;;;;;;5051828;28;20540;-53
2023/01/30 04:26:26;;;;;;;26.20;5.18;;;6.60;99.90;;;;;;5051956;28;20124;-50
2023/01/30 04:28:52;;;;;;;21.02;4.43;;;6.60;99.90;;;;;;5051641;28;20415;-51
2023/01/30 04:31:18;;;;;;;17.45;4.15;;;6.50;99.90;;;;;;5051379;28;20473;-47
2023/01/30 04:33:44;;;;;;;17.77;4.20;;;6.60;99.90;;;;;;5051292;28;20049;-51
2023/01/30 04:36:10;;;;;;;20.23;3.33;;;6.60;99.90;;;;;;5051739;28;20089;-52
2023/01/30 04:38:36;;;;;;;17.60;4.10;;;6.60;99.90;;;;;;5049921;28;20043;-50
2023/01/30 04:41:02;;;;;;;24.27;4.45;;;6.80;99.90;;;;;;5051443;28;20041;-51
2023/01/30 04:43:29;;;;;;;18.17;3.70;;;6.50;99.90;;;;;;5051483;28;20106;-49
2023/01/30 04:45:55;;;;;;;18.10;3.58;;;6.50;99.90;;;;;;5051460;28;20049;-51
2023/01/30 04:48:23;;;;;;;20.40;3.42;;;6.80;99.90;;;;;;5050741;28;20044;-48
2023/01/30 04:50:51;;;;;;;15.98;3.13;;;6.70;99.90;;;;;;5051410;28;20516;-49
2023/01/30 04:53:19;;;;;;;15.52;3.03;;;6.70;99.90;;;;;;5051320;28;20047;-47
2023/01/30 04:55:45;;;;;;;16.52;3.47;;;6.70;99.90;;;;;;5049889;28;20041;-49
2023/01/30 04:58:11;;;;;;;13.48;3.00;;;6.60;99.90;;;;;;5051517;28;20045;-52
2023/01/30 05:00:37;;;;;;;19.45;3.50;;;6.70;99.90;;;;;;5051110;28;20106;-48
2023/01/30 05:03:03;;;;;;;14.90;3.15;;;6.70;99.90;;;;;;5051000;28;20397;-51
2023/01/30 05:05:29;;;;;;;15.82;2.95;;;6.50;99.90;;;;;;5048999;28;20048;-51
2023/01/30 05:07:55;;;;;;;19.75;3.45;;;6.50;99.90;;;;;;5050623;28;20365;-50
2023/01/30 05:10:21;;;;;;;25.02;3.28;;;6.50;99.90;;;;;;5051100;28;20071;-51
2023/01/30 05:12:46;;;;;;;20.70;3.25;;;6.50;99.90;;;;;;5050788;28;20037;-50
2023/01/30 05:15:13;;;;;;;17.95;3.33;;;6.40;99.90;;;;;;5050689;28;20041;-50
2023/01/30 05:17:39;;;;;;;16.65;3.05;;;6.40;99.90;;;;;;5050444;28;20114;-51
2023/01/30 05:20:08;;;;;;;20.08;3.33;;;6.50;99.90;;;;;;5050564;28;20037;-52
2023/01/30 05:22:34;;;;;;;20.52;3.20;;;6.50;99.90;;;;;;5050479;28;20032;-51
2023/01/30 05:25:00;;;;;;;21.77;4.00;;;6.40;99.90;;;;;;5049166;28;20048;-50
2023/01/30 05:27:26;;;;;;;19.52;3.63;;;6.40;99.90;;;;;;5050635;28;20041;-51
2023/01/30 05:29:54;;;;;;;19.35;3.33;;;6.40;99.90;;;;;;5049733;28;20086;-50
2023/01/30 05:32:20;;;;;;;20.83;4.32;;;6.40;99.90;;;;;;5050641;28;20037;-51
2023/01/30 05:34:47;;;;;;;15.98;3.38;;;6.40;99.90;;;;;;5050108;28;20262;-51
2023/01/30 05:37:13;;;;;;;20.50;3.65;;;6.30;99.90;;;;;;5050415;28;20041;-50
2023/01/30 05:39:39;;;;;;;18.98;3.60;;;6.20;99.90;;;;;;5050363;28;20435;-49
2023/01/30 05:42:04;;;;;;;21.58;3.50;;;6.20;99.90;;;;;;5050400;28;20029;-52
2023/01/30 05:44:30;;;;;;;21.98;4.38;;;6.20;99.90;;;;;;5050545;28;20477;-54
2023/01/30 05:46:56;;;;;;;19.15;3.65;;;6.10;99.90;;;;;;5050116;28;20123;-50
2023/01/30 05:49:22;;;;;;;21.48;3.53;;;6.10;99.90;;;;;;5050088;28;20037;-47
2023/01/30 05:51:48;;;;;;;22.50;3.95;;;6.00;99.90;;;;;;5049918;28;20079;-49
2023/01/30 05:54:14;;;;;;;22.95;4.65;;;5.90;99.90;;;;;;5050218;28;20033;-50
2023/01/30 05:56:39;;;;;;;23.05;4.15;;;6.10;99.90;;;;;;5050649;28;20415;-51
2023/01/30 05:59:05;;;;;;;24.83;4.07;;;5.90;99.90;;;;;;5050118;28;20052;-51
2023/01/30 06:01:31;;;;;;;24.67;4.10;;;5.80;99.90;;;;;;5049963;28;20041;-49
2023/01/30 06:03:57;;;;;;;21.20;3.45;;;5.80;99.90;;;;;;5050031;28;20056;-53
2023/01/30 06:06:24;;;;;;;21.95;4.13;;;5.80;99.90;;;;;;5050077;28;20127;-53
2023/01/30 06:08:54;;;;;;;22.00;3.53;;;5.80;99.90;;;;;;5049978;28;20041;-48
2023/01/30 06:11:20;;;;;;;22.63;3.63;;;6.40;99.90;;;;;;5050044;28;20380;-49
2023/01/30 06:13:46;;;;;;;21.40;3.50;;;5.70;99.90;;;;;;5050134;28;20037;-50
2023/01/30 06:16:13;;;;;;;22.85;3.10;;;5.80;99.90;;;;;;5050807;28;20469;-48
2023/01/30 06:18:39;;;;;;;17.52;3.05;;;5.80;99.90;;;;;;5053889;28;20488;-51
2023/01/30 06:21:06;;;;;;;26.55;4.07;;;5.70;99.90;;;;;;5052773;28;20051;-50
2023/01/30 06:23:32;;;;;;;24.30;4.30;;;5.60;99.90;;;;;;5053572;28;20143;-52
2023/01/30 06:25:58;;;;;;;22.00;4.38;;;5.60;99.90;;;;;;5054068;28;20481;-52
2023/01/30 06:28:24;;;;;;;23.40;3.78;;;5.70;99.90;;;;;;5054460;28;20050;-52
2023/01/30 06:30:50;;;;;;;22.88;4.18;;;5.70;99.90;;;;;;5053940;28;20477;-51
2023/01/30 06:33:16;;;;;;;21.02;3.38;;;5.70;99.90;;;;;;5052398;28;20434;-50
2023/01/30 06:35:43;;;;;;;22.63;3.83;;;5.70;99.90;;;;;;5053739;28;20438;-52
2023/01/30 06:38:10;;;;;;;21.55;3.53;;;5.70;99.90;;;;;;5052221;28;20049;-51
2023/01/30 06:40:37;;;;;;;22.85;3.78;;;5.90;99.90;;;;;;5053550;28;20124;-49
2023/01/30 06:43:03;;;;;;;25.10;3.42;;;5.70;99.90;;;;;;5053744;28;20095;-50
2023/01/30 06:45:29;;;;;;;22.25;3.58;;;5.60;99.90;;;;;;5053080;28;20113;-51
2023/01/30 06:47:55;;;;;;;31.92;4.38;;;5.70;99.90;;;;;;5053517;28;20041;-50
2023/01/30 06:50:23;;;;;;;18.90;3.88;;;5.60;99.90;;;;;;5053188;28;20037;-48
2023/01/30 06:52:50;;;;;;;19.75;3.20;;;5.60;99.90;;;;;;5053244;28;20033;-49
2023/01/30 06:55:19;;;;;;;20.35;3.63;;;5.60;99.90;;;;;;5053424;28;20049;-49
2023/01/30 06:57:45;;;;;;;22.02;4.05;;;5.60;99.90;;;;;;5053589;28;20032;-52
2023/01/30 07:00:16;;;;;;;23.08;3.47;;;5.60;99.90;;;;;;5053937;28;20047;-51
2023/01/30 07:02:42;;;;;;;19.48;3.08;;;5.50;99.90;;;;;;5053819;28;20040;-49
2023/01/30 07:05:09;;;;;;;22.85;3.70;;;5.60;99.90;;;;;;5051616;28;20057;-51
2023/01/30 07:07:35;;;;;;;26.73;3.92;;;5.50;99.90;;;;;;5053359;28;20037;-51
2023/01/30 07:10:03;;;;;;;21.77;3.97;;;5.40;99.90;;;;;;5053136;28;20384;-48
2023/01/30 07:12:29;;;;;;;24.75;4.30;;;5.40;99.90;;;;;;5053006;28;20058;-50
2023/01/30 07:14:55;;;;;;;22.65;3.70;;;5.40;99.90;;;;;;5053831;28;20057;-51
2023/01/30 07:17:21;;;;;;;19.50;3.05;;;5.40;99.90;;;;;;5053274;28;20033;-50
2023/01/30 07:19:48;;;;;;;22.15;3.03;;;5.40;99.90;;;;;;5053320;28;20068;-51
2023/01/30 07:22:14;;;;;;;20.02;3.15;;;5.40;99.90;;;;;;5053158;28;20048;-48
2023/01/30 07:24:41;;;;;;;24.80;2.88;;;5.40;99.90;;;;;;5052864;28;20742;-50
2023/01/30 07:27:09;;;;;;;19.35;2.95;;;5.50;99.90;;;;;;5049874;28;20096;-50
2023/01/30 07:29:36;;;;;;;22.35;3.42;;;5.50;99.90;;;;;;5053414;28;20384;-49
2023/01/30 07:32:02;;;;;;;21.77;3.50;;;5.60;99.90;;;;;;5050666;28;20025;-50
2023/01/30 07:34:28;;;;;;;20.38;3.45;;;5.50;99.90;;;;;;5052542;28;20052;-50
2023/01/30 07:36:54;;;;;;;17.90;3.42;;;5.50;99.90;;;;;;5051655;28;20484;-49
2023/01/30 07:39:19;;;;;;;25.30;4.47;;;5.50;99.90;;;;;;5043907;28;20048;-51
2023/01/30 07:41:45;;;;;;;25.40;3.58;;;5.60;99.90;;;;;;5045739;28;20037;-49
2023/01/30 07:44:12;;;;;;;24.73;3.63;;;5.60;99.90;;;;;;5043644;28;20029;-52
2023/01/30 07:46:38;;;;;;;26.27;3.38;;;5.60;99.90;;;;;;5043402;28;20388;-52
2023/01/30 07:49:04;;;;;;;23.02;3.65;;;5.70;99.90;;;;;;5043557;28;20033;-51
2023/01/30 07:51:30;;;;;;;18.83;3.08;;;5.70;99.90;;;;;;5043108;28;20025;-53
2023/01/30 07:53:56;;;;;;;37.40;4.88;;;5.70;99.90;;;;;;5042958;28;20179;-52
2023/01/30 07:56:22;;;;;;;30.67;4.05;;;5.70;99.90;;;;;;5043542;28;20124;-51
2023/01/30 07:58:49;;;;;;;26.58;4.15;;;5.80;99.90;;;;;;5043572;28;20155;-52
2023/01/30 08:01:16;;;;;;;28.25;4.15;;;5.90;99.90;;;;;;5043002;28;20048;-48
2023/01/30 08:03:44;;;;;;;23.45;4.25;;;5.80;99.90;;;;;;5042034;28;20401;-49
2023/01/30 08:06:11;;;;;;;32.67;4.50;;;5.90;99.90;;;;;;5041135;28;20045;-51
2023/01/30 08:08:37;;;;;;;23.35;4.22;;;6.00;99.90;;;;;;5043400;28;20404;-50
2023/01/30 08:11:03;;;;;;;22.25;3.88;;;5.90;99.90;;;;;;5042845;28;20044;-50
2023/01/30 08:13:28;;;;;;;26.13;3.60;;;6.00;99.90;;;;;;5043143;28;20496;-49
2023/01/30 08:15:54;;;;;;;23.15;4.18;;;6.00;99.90;;;;;;5047427;28;20040;-52
2023/01/30 08:18:20;;;;;;;24.77;4.43;;;5.90;99.90;;;;;;5052365;28;20025;-51
2023/01/30 08:20:45;;;;;;;23.65;4.20;;;5.90;99.90;;;;;;5049158;28;20071;-52
2023/01/30 08:23:11;;;;;;;20.42;3.42;;;6.10;99.90;;;;;;5048658;28;20082;-52
2023/01/30 08:25:37;;;;;;;24.80;4.20;;;6.00;99.90;;;;;;5044998;28;20407;-52
2023/01/30 08:28:03;;;;;;;23.35;3.60;;;6.00;99.90;;;;;;5049489;28;20513;-50
2023/01/30 08:30:29;;;;;;;22.95;4.57;;;6.00;99.90;;;;;;5050995;28;20079;-50
2023/01/30 08:32:56;;;;;;;22.70;4.53;;;6.40;99.90;;;;;;5051273;28;20080;-52
2023/01/30 08:35:22;;;;;;;30.42;4.22;;;6.10;99.90;;;;;;5051422;28;20052;-49
2023/01/30 08:37:48;;;;;;;23.20;3.58;;;6.10;99.90;;;;;;5051236;28;20044;-51
2023/01/30 08:40:14;;;;;;;23.65;5.25;;;6.20;99.90;;;;;;5050595;28;20048;-50
2023/01/30 08:42:42;;;;;;;32.95;7.75;;;6.10;99.90;;;;;;5051030;28;20090;-53
2023/01/30 08:45:08;;;;;;;27.50;6.55;;;6.20;99.90;;;;;;5051413;28;20049;-50
2023/01/30 08:47:34;;;;;;;26.65;5.20;;;6.20;99.90;;;;;;5051031;28;20040;-50
2023/01/30 08:50:00;;;;;;;24.27;4.78;;;6.20;99.90;;;;;;5051953;28;20033;-50
2023/01/30 08:52:26;;;;;;;26.85;4.32;;;6.20;99.90;;;;;;5050068;28;20047;-49
2023/01/30 08:54:52;;;;;;;25.88;4.22;;;6.20;99.90;;;;;;5050795;28;20037;-51
2023/01/30 08:57:18;;;;;;;24.25;4.05;;;6.20;99.90;;;;;;5044625;28;20037;-49
2023/01/30 08:59:43;;;;;;;20.42;3.90;;;6.40;99.90;;;;;;5049425;28;20565;-49
2023/01/30 09:02:11;;;;;;;17.45;3.15;;;6.30;99.90;;;;;;5049511;28;20365;-50
2023/01/30 09:04:36;;;;;;;24.98;3.97;;;6.30;99.90;;;;;;5049801;28;20504;-50
2023/01/30 09:07:02;;;;;;;25.88;4.18;;;6.10;99.90;;;;;;5050302;28;20072;-52
2023/01/30 09:09:28;;;;;;;22.58;4.45;;;6.30;99.90;;;;;;5050619;28;20495;-50
2023/01/30 09:11:54;;;;;;;24.63;3.95;;;6.30;99.90;;;;;;5049178;28;20524;-48
2023/01/30 09:14:20;;;;;;;19.35;3.78;;;6.40;99.90;;;;;;5050395;28;20120;-51
2023/01/30 09:16:47;;;;;;;21.80;4.25;;;6.40;99.90;;;;;;5039209;28;20041;-52
2023/01/30 09:19:13;;;;;;;25.75;4.00;;;6.40;99.90;;;;;;5039456;28;20047;-48
2023/01/30 09:21:39;;;;;;;21.13;4.32;;;6.40;99.90;;;;;;5040782;28;20049;-49
2023/01/30 09:24:05;;;;;;;20.80;3.53;;;6.50;99.90;;;;;;5040953;28;20460;-50
2023/01/30 09:26:32;;;;;;;19.90;3.55;;;6.50;99.90;;;;;;5041025;28;20498;-50
2023/01/30 09:28:58;;;;;;;15.80;3.10;;;6.50;99.90;;;;;;5040900;28;20077;-49
2023/01/30 09:31:23;;;;;;;21.05;4.50;;;6.50;99.90;;;;;;5040361;28;20132;-51
2023/01/30 09:33:49;;;;;;;19.95;4.13;;;6.50;99.90;;;;;;5038974;28;20052;-49
2023/01/30 09:36:15;;;;;;;23.67;3.92;;;6.70;99.90;;;;;;5040778;28;20567;-53
2023/01/30 09:38:40;;;;;;;21.48;4.20;;;6.60;99.90;;;;;;5040811;28;20033;-52
2023/01/30 09:41:14;;;;;;;25.00;3.85;;;6.60;99.90;;;;;;5040178;28;20080;-51
2023/01/30 09:44:01;;;;;;;24.90;4.33;;;6.60;99.90;;;;;;5040642;28;20476;-53
2023/01/30 09:46:38;;;;;;;25.20;4.13;;;6.60;99.90;;;;;;5040430;28;20625;-53
2023/01/30 09:49:12;;;;;;;28.88;4.15;;;6.60;99.90;;;;;;5039123;28;20459;-52
2023/01/30 09:51:50;;;;;;;25.75;4.97;;;6.60;99.90;;;;;;5039074;28;20439;-49
2023/01/30 09:54:25;;;;;;;22.42;4.13;;;6.60;99.90;;;;;;5040283;28;20435;-50
2023/01/30 09:57:11;;;;;;;23.00;4.20;;;6.70;99.90;;;;;;5040093;28;20579;-49
2023/01/30 09:59:46;;;;;;;20.67;3.88;;;6.70;99.90;;;;;;5040100;28;20041;-52
2023/01/30 10:02:28;;;;;;;23.63;4.05;;;6.80;99.90;;;;;;5040417;28;20500;-52
2023/01/30 10:04:55;;;;;;;25.88;4.05;;;6.90;99.90;;;;;;5040203;28;20095;-52
2023/01/30 10:07:47;;;;;;;22.83;3.80;;;7.10;99.90;;;;;;5038642;28;20056;-50
2023/01/30 10:10:22;;;;;;;22.02;3.85;;;7.00;99.90;;;;;;5036768;28;20084;-48
2023/01/30 10:13:02;;;;;;;27.45;4.68;;;6.90;99.90;;;;;;5040096;28;20032;-54
2023/01/30 10:15:52;;;;;;;30.42;4.68;;;7.00;99.90;;;;;;5040187;28;20051;-51
2023/01/30 10:19:07;;;;;;;21.10;3.70;;;7.00;99.90;;;;;;5036978;28;20060;-48
2023/01/30 10:21:38;;;;;;;24.35;4.03;;;7.00;99.90;;;;;;5033521;28;20052;-51
2023/01/30 10:24:30;;;;;;;26.20;4.38;;;7.10;99.90;;;;;;5040319;28;20179;-48
2023/01/30 10:26:57;;;;;;;29.40;3.78;;;7.20;99.90;;;;;;5041095;28;20094;-52
2023/01/30 10:29:31;;;;;;;28.17;5.30;;;7.30;99.90;;;;;;5041428;28;20043;-48
2023/01/30 10:32:17;;;;;;;26.73;4.25;;;7.50;99.90;;;;;;5039536;28;20040;-49
2023/01/30 10:34:49;;;;;;;28.58;4.88;;;7.60;99.90;;;;;;5039384;28;20059;-51
2023/01/30 10:37:25;;;;;;;28.92;4.25;;;7.80;99.90;;;;;;5038986;28;20069;-49
2023/01/30 10:40:11;;;;;;;24.77;4.03;;;7.70;99.90;;;;;;5040425;28;20504;-48
2023/01/30 10:42:58;;;;;;;25.05;4.30;;;7.60;99.90;;;;;;5041513;28;20095;-51
2023/01/30 10:45:58;;;;;;;24.33;4.45;;;7.50;99.90;;;;;;5040482;28;20033;-52
2023/01/30 10:48:29;;;;;;;25.83;4.63;;;7.60;99.90;;;;;;4970602;28;20106;-49
2023/01/30 10:51:09;;;;;;;25.73;3.97;;;7.60;99.90;;;;;;5038724;28;20448;-49
2023/01/30 10:53:59;;;;;;;25.45;4.50;;;7.50;99.90;;;;;;5040260;28;20428;-52
2023/01/30 10:56:42;;;;;;;27.10;4.45;;;7.70;99.90;;;;;;5040316;28;20041;-51
2023/01/30 10:59:43;;;;;;;31.08;4.22;;;7.80;99.90;;;;;;5041376;28;20551;-51
2023/01/30 11:02:15;;;;;;;30.25;4.63;;;8.10;99.90;;;;;;5039744;28;20040;-52
2023/01/30 11:05:00;;;;;;;30.80;4.57;;;8.20;99.90;;;;;;5043173;28;20041;-48
2023/01/30 11:07:31;;;;;;;22.77;3.90;;;8.10;99.90;;;;;;5043977;28;20051;-51
2023/01/30 11:09:58;;;;;;;32.50;4.82;;;7.90;99.90;;;;;;5044205;28;20116;-48
2023/01/30 11:12:24;;;;;;;22.85;4.38;;;8.00;99.90;;;;;;5044422;28;20065;-52
2023/01/30 11:14:58;;;;;;;28.08;4.70;;;8.10;99.90;;;;;;5043987;28;20497;-50
2023/01/30 11:17:32;;;;;;;;;;;8.10;99.90;;;;;;5043964;28;20037;-51
2023/01/30 11:20:04;;;;;;;23.83;4.13;;;8.20;99.90;;;;;;5043583;28;19919;-52
2023/01/30 11:22:30;;;;;;;28.92;4.13;;;8.40;99.90;;;;;;5044788;28;20036;-50
2023/01/30 11:25:18;;;;;;;26.40;5.40;;;8.40;99.90;;;;;;5043296;28;20112;-50
2023/01/30 11:27:55;;;;;;;29.98;5.05;;;8.20;99.90;;;;;;5041807;28;20028;-50
2023/01/30 11:30:25;;;;;;;31.55;5.40;;;8.10;99.90;;;;;;5041325;28;20052;-50
2023/01/30 11:33:10;;;;;;;30.80;5.07;;;7.60;99.90;;;;;;5042569;28;20114;-49
2023/01/30 11:35:42;;;;;;;25.77;5.45;;;8.00;99.90;;;;;;5039141;28;20510;-49
2023/01/30 11:38:21;;;;;;;25.83;4.18;;;7.90;99.90;;;;;;5032387;28;20048;-49
2023/01/30 11:40:47;;;;;;;22.23;3.95;;;8.00;99.90;;;;;;5040349;28;21123;-50
2023/01/30 11:43:13;;;;;;;20.95;4.57;;;8.30;99.90;;;;;;5041967;28;20139;-47
2023/01/30 11:45:49;;;;;;;25.48;4.07;;;8.30;99.90;;;;;;5042351;28;20048;-54
2023/01/30 11:48:22;;;;;;;32.83;5.10;;;8.30;99.90;;;;;;5043124;28;20034;-51
2023/01/30 11:50:54;;;;;;;25.77;4.50;;;8.20;99.90;;;;;;5043218;28;20041;-50
2023/01/30 11:53:37;;;;;;;21.55;4.22;;;8.20;99.90;;;;;;5042810;28;20045;-52
2023/01/30 11:56:27;;;;;;;27.83;4.43;;;8.10;99.90;;;;;;5043924;28;20041;-54
2023/01/30 11:58:57;;;;;;;31.33;5.43;;;8.10;99.90;;;;;;5035528;28;24323;-49
2023/01/30 12:01:32;;;;;;;29.35;4.57;;;8.20;99.90;;;;;;5042342;28;21230;-51
2023/01/30 12:03:59;;;;;;;22.83;4.03;;;8.20;99.90;;;;;;5042113;28;20463;-53
2023/01/30 12:06:31;;;;;;;23.42;4.47;;;8.30;99.90;;;;;;5042646;28;20361;-48
2023/01/30 12:08:58;;;;;;;27.17;5.00;;;8.40;99.90;;;;;;5042247;28;20039;-49
2023/01/30 12:11:35;;;;;;;24.27;4.13;;;8.60;99.90;;;;;;5041680;28;20029;-49
2023/01/30 12:14:24;;;;;;;30.13;4.25;;;8.50;99.90;;;;;;5040037;28;20061;-49
2023/01/30 12:17:03;;;;;;;20.85;4.40;;;8.40;99.90;;;;;;5041610;28;20056;-49
2023/01/30 12:19:53;;;;;;;25.45;4.45;;;8.20;99.90;;;;;;5041581;28;20086;-53
2023/01/30 12:22:34;;;;;;;25.75;5.25;;;8.20;99.90;;;;;;5040692;28;20135;-51
2023/01/30 12:25:17;;;;;;;26.65;4.88;;;8.10;99.90;;;;;;5042193;28;20443;-50
2023/01/30 12:27:58;;;;;;;22.27;4.03;;;8.10;99.90;;;;;;5040585;28;20039;-51
2023/01/30 12:30:53;;;;;;;25.13;4.85;;;7.90;99.90;;;;;;5042052;28;20079;-48
2023/01/30 12:33:20;;;;;;;18.00;3.65;;;7.80;99.90;;;;;;5041517;28;20049;-49
2023/01/30 12:35:51;;;;;;;18.60;3.35;;;7.20;99.90;;;;;;5041961;28;20091;-49
2023/01/30 12:38:28;;;;;;;11.77;2.10;;;6.60;99.90;;;;;;5041846;28;20089;-46
2023/01/30 12:41:16;;;;;;;17.05;3.08;;;6.30;99.90;;;;;;5041420;28;20036;-48
2023/01/30 12:43:57;;;;;;;16.40;2.95;;;6.20;99.90;;;;;;5037229;28;20053;-52
2023/01/30 12:46:47;;;;;;;20.10;3.63;;;6.10;99.90;;;;;;5042320;28;20087;-51
2023/01/30 12:49:57;;;;;;;22.83;5.03;;;6.20;99.90;;;;;;5041571;28;20460;-50
2023/01/30 12:52:45;;;;;;;25.77;6.03;;;6.50;99.90;;;;;;5012933;28;20061;-50
2023/01/30 12:55:24;;;;;;;22.70;5.28;;;6.90;99.90;;;;;;5039117;28;20507;-48
2023/01/30 12:58:08;;;;;;;24.83;4.18;;;7.30;99.90;;;;;;5039907;28;20053;-48
2023/01/30 13:00:52;;;;;;;20.42;3.85;;;7.40;99.90;;;;;;5041468;28;20044;-52
2023/01/30 13:03:21;;;;;;;27.33;4.88;;;7.70;99.90;;;;;;5041327;28;20068;-50
2023/01/30 13:06:02;;;;;;;27.30;5.63;;;7.80;99.90;;;;;;5031637;28;20052;-53
2023/01/30 13:08:46;;;;;;;25.42;5.10;;;8.00;99.90;;;;;;5040951;28;20033;-49